sensor_id;sensor_type;location;lat;lon;timestamp;temperature;humidity
24744;DHT22;12844;52.110;5.548;2023-07-20T00:01:13;24.60;56.50
24744;DHT22;12844;52.110;5.548;2023-07-20T00:03:39;24.50;56.50
24744;DHT22;12844;52.110;5.548;2023-07-20T00:06:05;24.50;56.50
24744;DHT22;12844;52.110;5.548;2023-07-20T00:08:30;24.50;56.50
24744;DHT22;12844;52.110;5.548;2023-07-20T00:10:56;24.50;56.50
24744;DHT22;12844;52.110;5.548;2023-07-20T00:13:22;24.50;56.50
24744;DHT22;12844;52.110;5.548;2023-07-20T00:15:47;24.50;56.50
24744;DHT22;12844;52.110;5.548;2023-07-20T00:18:13;24.50;56.50
24744;DHT22;12844;52.110;5.548;2023-07-20T00:20:39;24.50;56.50
24744;DHT22;12844;52.110;5.548;2023-07-20T00:25:40;24.50;56.40
24744;DHT22;12844;52.110;5.548;2023-07-20T00:28:05;24.50;56.40
24744;DHT22;12844;52.110;5.548;2023-07-20T00:30:31;24.50;56.40
24744;DHT22;12844;52.110;5.548;2023-07-20T00:32:56;24.50;56.40
24744;DHT22;12844;52.110;5.548;2023-07-20T00:35:22;24.50;56.40
24744;DHT22;12844;52.110;5.548;2023-07-20T00:37:47;24.50;56.30
24744;DHT22;12844;52.110;5.548;2023-07-20T00:40:13;24.50;56.40
24744;DHT22;12844;52.110;5.548;2023-07-20T00:42:38;24.50;56.30
24744;DHT22;12844;52.110;5.548;2023-07-20T00:55:26;24.50;56.20
24744;DHT22;12844;52.110;5.548;2023-07-20T00:57:53;24.50;56.10
24744;DHT22;12844;52.110;5.548;2023-07-20T01:00:19;24.50;56.10
24744;DHT22;12844;52.110;5.548;2023-07-20T01:02:45;24.50;56.10
24744;DHT22;12844;52.110;5.548;2023-07-20T01:05:11;24.50;56.10
24744;DHT22;12844;52.110;5.548;2023-07-20T01:08:01;24.50;56.20
24744;DHT22;12844;52.110;5.548;2023-07-20T01:10:33;24.50;55.90
24744;DHT22;12844;52.110;5.548;2023-07-20T01:13:01;24.50;56.10
24744;DHT22;12844;52.110;5.548;2023-07-20T01:15:27;24.40;56.00
24744;DHT22;12844;52.110;5.548;2023-07-20T01:17:53;24.50;56.00
24744;DHT22;12844;52.110;5.548;2023-07-20T01:20:20;24.40;56.10
24744;DHT22;12844;52.110;5.548;2023-07-20T01:31:30;24.50;56.10
24744;DHT22;12844;52.110;5.548;2023-07-20T01:33:58;24.50;56.10
24744;DHT22;12844;52.110;5.548;2023-07-20T01:36:27;24.40;56.10
24744;DHT22;12844;52.110;5.548;2023-07-20T01:38:53;24.40;56.00
24744;DHT22;12844;52.110;5.548;2023-07-20T01:41:20;24.40;55.90
24744;DHT22;12844;52.110;5.548;2023-07-20T01:43:46;24.40;55.90
24744;DHT22;12844;52.110;5.548;2023-07-20T01:46:11;24.50;55.90
24744;DHT22;12844;52.110;5.548;2023-07-20T01:48:37;24.40;56.30
24744;DHT22;12844;52.110;5.548;2023-07-20T01:51:02;24.40;56.50
24744;DHT22;12844;52.110;5.548;2023-07-20T01:53:28;24.40;55.90
24744;DHT22;12844;52.110;5.548;2023-07-20T01:55:54;24.40;55.80
24744;DHT22;12844;52.110;5.548;2023-07-20T01:58:22;24.40;55.90
24744;DHT22;12844;52.110;5.548;2023-07-20T02:00:48;24.50;55.90
24744;DHT22;12844;52.110;5.548;2023-07-20T02:03:13;24.40;55.80
24744;DHT22;12844;52.110;5.548;2023-07-20T02:05:39;24.40;55.70
24744;DHT22;12844;52.110;5.548;2023-07-20T02:08:05;24.40;55.80
24744;DHT22;12844;52.110;5.548;2023-07-20T02:10:30;24.50;55.80
24744;DHT22;12844;52.110;5.548;2023-07-20T02:12:56;24.40;55.70
24744;DHT22;12844;52.110;5.548;2023-07-20T02:15:22;24.40;55.70
24744;DHT22;12844;52.110;5.548;2023-07-20T02:17:47;24.40;55.70
24744;DHT22;12844;52.110;5.548;2023-07-20T02:20:13;24.40;55.90
24744;DHT22;12844;52.110;5.548;2023-07-20T02:22:39;24.40;56.40
24744;DHT22;12844;52.110;5.548;2023-07-20T02:25:05;24.40;55.70
24744;DHT22;12844;52.110;5.548;2023-07-20T02:27:32;24.40;55.70
24744;DHT22;12844;52.110;5.548;2023-07-20T02:29:58;24.40;55.60
24744;DHT22;12844;52.110;5.548;2023-07-20T02:32:24;24.40;55.60
24744;DHT22;12844;52.110;5.548;2023-07-20T02:34:49;24.40;56.20
24744;DHT22;12844;52.110;5.548;2023-07-20T02:37:16;24.40;55.60
24744;DHT22;12844;52.110;5.548;2023-07-20T02:39:42;24.40;55.60
24744;DHT22;12844;52.110;5.548;2023-07-20T02:42:07;24.40;55.60
24744;DHT22;12844;52.110;5.548;2023-07-20T02:44:32;24.40;55.60
24744;DHT22;12844;52.110;5.548;2023-07-20T02:46:58;24.40;55.60
24744;DHT22;12844;52.110;5.548;2023-07-20T02:49:24;24.40;55.60
24744;DHT22;12844;52.110;5.548;2023-07-20T02:51:49;24.40;55.90
24744;DHT22;12844;52.110;5.548;2023-07-20T02:54:15;24.40;55.50
24744;DHT22;12844;52.110;5.548;2023-07-20T02:56:41;24.40;55.50
24744;DHT22;12844;52.110;5.548;2023-07-20T02:59:06;24.40;55.40
24744;DHT22;12844;52.110;5.548;2023-07-20T03:01:32;24.40;55.40
24744;DHT22;12844;52.110;5.548;2023-07-20T03:03:58;24.40;55.40
24744;DHT22;12844;52.110;5.548;2023-07-20T03:06:23;24.40;55.40
24744;DHT22;12844;52.110;5.548;2023-07-20T03:08:49;24.40;55.50
24744;DHT22;12844;52.110;5.548;2023-07-20T03:11:19;24.40;55.40
24744;DHT22;12844;52.110;5.548;2023-07-20T03:13:45;24.40;55.40
24744;DHT22;12844;52.110;5.548;2023-07-20T03:16:13;24.40;55.40
24744;DHT22;12844;52.110;5.548;2023-07-20T03:18:40;24.40;55.40
24744;DHT22;12844;52.110;5.548;2023-07-20T03:21:07;24.40;55.40
24744;DHT22;12844;52.110;5.548;2023-07-20T03:23:33;24.40;55.30
24744;DHT22;12844;52.110;5.548;2023-07-20T03:25:58;24.40;55.40
24744;DHT22;12844;52.110;5.548;2023-07-20T03:28:24;24.40;55.30
24744;DHT22;12844;52.110;5.548;2023-07-20T03:30:56;24.40;55.30
24744;DHT22;12844;52.110;5.548;2023-07-20T03:33:26;24.40;55.30
24744;DHT22;12844;52.110;5.548;2023-07-20T03:35:52;24.40;55.30
24744;DHT22;12844;52.110;5.548;2023-07-20T03:38:19;24.40;55.20
24744;DHT22;12844;52.110;5.548;2023-07-20T03:43:16;24.40;55.10
24744;DHT22;12844;52.110;5.548;2023-07-20T03:45:42;24.40;55.10
24744;DHT22;12844;52.110;5.548;2023-07-20T03:48:08;24.40;55.20
24744;DHT22;12844;52.110;5.548;2023-07-20T03:50:33;24.40;55.10
24744;DHT22;12844;52.110;5.548;2023-07-20T03:52:59;24.40;55.10
24744;DHT22;12844;52.110;5.548;2023-07-20T03:55:24;24.40;55.10
24744;DHT22;12844;52.110;5.548;2023-07-20T03:57:50;24.40;55.10
24744;DHT22;12844;52.110;5.548;2023-07-20T04:00:17;24.40;55.10
24744;DHT22;12844;52.110;5.548;2023-07-20T04:02:42;24.40;55.10
24744;DHT22;12844;52.110;5.548;2023-07-20T04:05:08;24.40;55.00
24744;DHT22;12844;52.110;5.548;2023-07-20T04:07:34;24.40;55.00
24744;DHT22;12844;52.110;5.548;2023-07-20T04:09:59;24.40;55.00
24744;DHT22;12844;52.110;5.548;2023-07-20T04:12:25;24.40;55.00
24744;DHT22;12844;52.110;5.548;2023-07-20T04:14:50;24.40;55.00
24744;DHT22;12844;52.110;5.548;2023-07-20T04:17:16;24.40;55.00
24744;DHT22;12844;52.110;5.548;2023-07-20T04:19:42;24.40;55.00
24744;DHT22;12844;52.110;5.548;2023-07-20T04:22:08;24.30;54.80
24744;DHT22;12844;52.110;5.548;2023-07-20T04:24:33;24.40;54.90
24744;DHT22;12844;52.110;5.548;2023-07-20T04:26:59;24.40;54.90
24744;DHT22;12844;52.110;5.548;2023-07-20T04:29:24;24.40;54.90
24744;DHT22;12844;52.110;5.548;2023-07-20T04:31:50;24.40;55.00
24744;DHT22;12844;52.110;5.548;2023-07-20T04:34:15;24.40;54.90
24744;DHT22;12844;52.110;5.548;2023-07-20T04:36:41;24.40;54.90
24744;DHT22;12844;52.110;5.548;2023-07-20T04:39:06;24.40;54.90
24744;DHT22;12844;52.110;5.548;2023-07-20T04:41:33;24.40;54.80
24744;DHT22;12844;52.110;5.548;2023-07-20T04:43:59;24.40;54.80
24744;DHT22;12844;52.110;5.548;2023-07-20T04:46:25;24.40;54.80
24744;DHT22;12844;52.110;5.548;2023-07-20T04:48:50;24.40;54.70
24744;DHT22;12844;52.110;5.548;2023-07-20T04:51:16;24.40;54.80
24744;DHT22;12844;52.110;5.548;2023-07-20T04:53:48;24.40;54.70
24744;DHT22;12844;52.110;5.548;2023-07-20T04:56:14;24.40;54.70
24744;DHT22;12844;52.110;5.548;2023-07-20T04:58:40;24.30;54.70
24744;DHT22;12844;52.110;5.548;2023-07-20T05:01:05;24.40;54.70
24744;DHT22;12844;52.110;5.548;2023-07-20T05:03:31;24.30;54.70
24744;DHT22;12844;52.110;5.548;2023-07-20T05:05:57;24.30;54.70
24744;DHT22;12844;52.110;5.548;2023-07-20T05:08:23;24.30;54.60
24744;DHT22;12844;52.110;5.548;2023-07-20T05:10:48;24.30;54.70
24744;DHT22;12844;52.110;5.548;2023-07-20T05:13:14;24.30;54.60
24744;DHT22;12844;52.110;5.548;2023-07-20T05:15:40;24.30;54.60
24744;DHT22;12844;52.110;5.548;2023-07-20T05:18:05;24.30;54.70
24744;DHT22;12844;52.110;5.548;2023-07-20T05:20:31;24.30;54.70
24744;DHT22;12844;52.110;5.548;2023-07-20T05:22:58;24.30;54.70
24744;DHT22;12844;52.110;5.548;2023-07-20T05:25:24;24.30;54.60
24744;DHT22;12844;52.110;5.548;2023-07-20T05:27:50;24.30;54.70
24744;DHT22;12844;52.110;5.548;2023-07-20T05:30:16;24.30;54.70
24744;DHT22;12844;52.110;5.548;2023-07-20T05:32:41;24.30;54.60
24744;DHT22;12844;52.110;5.548;2023-07-20T05:35:07;24.30;54.60
24744;DHT22;12844;52.110;5.548;2023-07-20T05:37:34;24.30;54.70
24744;DHT22;12844;52.110;5.548;2023-07-20T05:39:59;24.30;54.60
24744;DHT22;12844;52.110;5.548;2023-07-20T05:42:25;24.30;54.60
24744;DHT22;12844;52.110;5.548;2023-07-20T05:44:51;24.30;54.50
24744;DHT22;12844;52.110;5.548;2023-07-20T05:47:18;24.30;54.50
24744;DHT22;12844;52.110;5.548;2023-07-20T05:49:43;24.30;54.60
24744;DHT22;12844;52.110;5.548;2023-07-20T05:52:09;24.30;54.60
24744;DHT22;12844;52.110;5.548;2023-07-20T05:54:35;24.30;54.50
24744;DHT22;12844;52.110;5.548;2023-07-20T05:57:00;24.30;54.60
24744;DHT22;12844;52.110;5.548;2023-07-20T05:59:27;24.30;54.50
24744;DHT22;12844;52.110;5.548;2023-07-20T06:01:54;24.30;54.60
24744;DHT22;12844;52.110;5.548;2023-07-20T06:04:20;24.30;54.50
24744;DHT22;12844;52.110;5.548;2023-07-20T06:06:45;24.30;54.50
24744;DHT22;12844;52.110;5.548;2023-07-20T06:09:11;24.20;54.50
24744;DHT22;12844;52.110;5.548;2023-07-20T06:11:38;24.30;54.60
24744;DHT22;12844;52.110;5.548;2023-07-20T06:14:04;24.30;54.70
24744;DHT22;12844;52.110;5.548;2023-07-20T06:16:30;24.30;55.20
24744;DHT22;12844;52.110;5.548;2023-07-20T06:18:55;24.30;54.50
24744;DHT22;12844;52.110;5.548;2023-07-20T06:21:21;24.30;54.40
24744;DHT22;12844;52.110;5.548;2023-07-20T06:23:47;24.30;54.30
24744;DHT22;12844;52.110;5.548;2023-07-20T06:26:12;24.30;54.40
24744;DHT22;12844;52.110;5.548;2023-07-20T06:28:38;24.30;54.30
24744;DHT22;12844;52.110;5.548;2023-07-20T06:31:04;24.30;54.30
24744;DHT22;12844;52.110;5.548;2023-07-20T06:33:29;24.30;53.80
24744;DHT22;12844;52.110;5.548;2023-07-20T06:35:55;24.30;53.80
24744;DHT22;12844;52.110;5.548;2023-07-20T06:38:22;24.40;54.10
24744;DHT22;12844;52.110;5.548;2023-07-20T06:40:49;24.40;54.10
24744;DHT22;12844;52.110;5.548;2023-07-20T06:43:16;24.40;53.90
24744;DHT22;12844;52.110;5.548;2023-07-20T06:45:42;24.40;53.80
24744;DHT22;12844;52.110;5.548;2023-07-20T06:48:07;24.40;54.00
24744;DHT22;12844;52.110;5.548;2023-07-20T06:50:33;24.50;54.10
24744;DHT22;12844;52.110;5.548;2023-07-20T06:52:59;24.50;54.00
24744;DHT22;12844;52.110;5.548;2023-07-20T06:55:25;24.50;54.00
24744;DHT22;12844;52.110;5.548;2023-07-20T06:57:51;24.50;54.00
24744;DHT22;12844;52.110;5.548;2023-07-20T07:00:17;24.50;53.90
24744;DHT22;12844;52.110;5.548;2023-07-20T07:02:43;24.40;53.80
24744;DHT22;12844;52.110;5.548;2023-07-20T07:05:08;24.50;54.00
24744;DHT22;12844;52.110;5.548;2023-07-20T07:07:34;24.50;54.00
24744;DHT22;12844;52.110;5.548;2023-07-20T07:10:00;24.50;54.70
24744;DHT22;12844;52.110;5.548;2023-07-20T07:12:26;24.50;54.10
24744;DHT22;12844;52.110;5.548;2023-07-20T07:14:52;24.50;54.50
24744;DHT22;12844;52.110;5.548;2023-07-20T07:17:19;24.50;54.00
24744;DHT22;12844;52.110;5.548;2023-07-20T07:27:34;24.50;54.00
24744;DHT22;12844;52.110;5.548;2023-07-20T07:30:00;24.50;54.00
24744;DHT22;12844;52.110;5.548;2023-07-20T07:32:25;24.60;53.90
24744;DHT22;12844;52.110;5.548;2023-07-20T07:34:51;24.60;53.90
24744;DHT22;12844;52.110;5.548;2023-07-20T07:37:16;24.60;54.00
24744;DHT22;12844;52.110;5.548;2023-07-20T07:39:42;24.60;54.00
24744;DHT22;12844;52.110;5.548;2023-07-20T07:42:08;24.70;53.90
24744;DHT22;12844;52.110;5.548;2023-07-20T07:44:33;24.70;54.00
24744;DHT22;12844;52.110;5.548;2023-07-20T07:46:59;24.70;54.10
24744;DHT22;12844;52.110;5.548;2023-07-20T07:49:24;24.70;54.00
24744;DHT22;12844;52.110;5.548;2023-07-20T07:51:50;24.70;53.80
24744;DHT22;12844;52.110;5.548;2023-07-20T07:54:15;24.70;54.10
24744;DHT22;12844;52.110;5.548;2023-07-20T07:56:41;24.70;54.10
24744;DHT22;12844;52.110;5.548;2023-07-20T07:59:08;24.70;54.10
24744;DHT22;12844;52.110;5.548;2023-07-20T08:01:33;24.70;54.10
24744;DHT22;12844;52.110;5.548;2023-07-20T08:03:59;24.60;54.00
24744;DHT22;12844;52.110;5.548;2023-07-20T08:06:24;24.60;54.10
24744;DHT22;12844;52.110;5.548;2023-07-20T08:08:51;24.70;54.10
24744;DHT22;12844;52.110;5.548;2023-07-20T08:11:16;24.70;54.20
24744;DHT22;12844;52.110;5.548;2023-07-20T08:13:43;24.70;54.20
24744;DHT22;12844;52.110;5.548;2023-07-20T08:16:09;24.70;54.20
24744;DHT22;12844;52.110;5.548;2023-07-20T08:18:34;24.70;54.20
24744;DHT22;12844;52.110;5.548;2023-07-20T08:21:00;24.70;54.20
24744;DHT22;12844;52.110;5.548;2023-07-20T08:23:25;24.70;54.10
24744;DHT22;12844;52.110;5.548;2023-07-20T08:25:53;24.80;54.10
24744;DHT22;12844;52.110;5.548;2023-07-20T08:28:18;24.70;54.00
24744;DHT22;12844;52.110;5.548;2023-07-20T08:30:47;24.80;53.90
24744;DHT22;12844;52.110;5.548;2023-07-20T08:33:14;24.80;53.90
24744;DHT22;12844;52.110;5.548;2023-07-20T08:35:40;24.90;53.80
24744;DHT22;12844;52.110;5.548;2023-07-20T08:38:06;25.00;53.70
24744;DHT22;12844;52.110;5.548;2023-07-20T08:40:33;25.20;53.40
24744;DHT22;12844;52.110;5.548;2023-07-20T08:42:59;25.50;52.80
24744;DHT22;12844;52.110;5.548;2023-07-20T08:45:28;25.80;52.00
24744;DHT22;12844;52.110;5.548;2023-07-20T08:47:58;26.30;51.70
24744;DHT22;12844;52.110;5.548;2023-07-20T08:50:26;26.80;50.20
24744;DHT22;12844;52.110;5.548;2023-07-20T08:52:52;27.30;49.30
24744;DHT22;12844;52.110;5.548;2023-07-20T08:55:20;27.70;48.30
24744;DHT22;12844;52.110;5.548;2023-07-20T08:57:50;28.10;47.50
24744;DHT22;12844;52.110;5.548;2023-07-20T09:00:17;28.50;46.80
24744;DHT22;12844;52.110;5.548;2023-07-20T09:02:45;28.90;46.10
24744;DHT22;12844;52.110;5.548;2023-07-20T09:05:11;29.20;45.40
24744;DHT22;12844;52.110;5.548;2023-07-20T09:07:40;29.40;44.90
24744;DHT22;12844;52.110;5.548;2023-07-20T09:10:07;29.60;44.50
24744;DHT22;12844;52.110;5.548;2023-07-20T09:12:40;29.70;44.10
24744;DHT22;12844;52.110;5.548;2023-07-20T09:15:07;29.40;44.40
24744;DHT22;12844;52.110;5.548;2023-07-20T09:17:33;29.40;44.80
24744;DHT22;12844;52.110;5.548;2023-07-20T09:20:01;29.30;44.60
24744;DHT22;12844;52.110;5.548;2023-07-20T09:22:30;29.10;45.00
24744;DHT22;12844;52.110;5.548;2023-07-20T09:24:57;28.70;45.60
24744;DHT22;12844;52.110;5.548;2023-07-20T09:27:24;28.10;46.30
24744;DHT22;12844;52.110;5.548;2023-07-20T09:29:56;27.70;47.30
24744;DHT22;12844;52.110;5.548;2023-07-20T09:32:22;27.30;48.20
24744;DHT22;12844;52.110;5.548;2023-07-20T09:34:51;27.10;48.80
24744;DHT22;12844;52.110;5.548;2023-07-20T09:37:21;27.50;48.50
24744;DHT22;12844;52.110;5.548;2023-07-20T09:39:47;28.10;47.40
24744;DHT22;12844;52.110;5.548;2023-07-20T09:42:15;28.50;46.50
24744;DHT22;12844;52.110;5.548;2023-07-20T09:44:43;28.40;46.30
24744;DHT22;12844;52.110;5.548;2023-07-20T09:47:09;28.20;46.70
24744;DHT22;12844;52.110;5.548;2023-07-20T09:49:39;28.40;46.70
24744;DHT22;12844;52.110;5.548;2023-07-20T09:52:07;28.90;46.10
24744;DHT22;12844;52.110;5.548;2023-07-20T09:54:33;29.40;45.20
24744;DHT22;12844;52.110;5.548;2023-07-20T09:57:00;29.80;44.20
24744;DHT22;12844;52.110;5.548;2023-07-20T09:59:27;30.20;43.40
24744;DHT22;12844;52.110;5.548;2023-07-20T10:01:53;30.50;42.80
24744;DHT22;12844;52.110;5.548;2023-07-20T10:04:24;30.70;42.40
24744;DHT22;12844;52.110;5.548;2023-07-20T10:06:52;30.90;41.90
24744;DHT22;12844;52.110;5.548;2023-07-20T10:09:22;31.10;41.70
24744;DHT22;12844;52.110;5.548;2023-07-20T10:11:53;30.80;41.90
24744;DHT22;12844;52.110;5.548;2023-07-20T10:14:22;30.30;42.40
24744;DHT22;12844;52.110;5.548;2023-07-20T10:16:55;29.80;43.50
24744;DHT22;12844;52.110;5.548;2023-07-20T10:19:26;29.30;44.70
24744;DHT22;12844;52.110;5.548;2023-07-20T10:22:06;29.30;45.00
24744;DHT22;12844;52.110;5.548;2023-07-20T10:24:34;29.50;44.80
24744;DHT22;12844;52.110;5.548;2023-07-20T10:27:00;29.80;44.10
24744;DHT22;12844;52.110;5.548;2023-07-20T10:29:26;29.90;43.90
24744;DHT22;12844;52.110;5.548;2023-07-20T10:31:54;29.60;44.00
24744;DHT22;12844;52.110;5.548;2023-07-20T10:34:20;29.70;44.30
24744;DHT22;12844;52.110;5.548;2023-07-20T10:36:46;29.90;44.10
24744;DHT22;12844;52.110;5.548;2023-07-20T10:39:25;30.10;43.80
24744;DHT22;12844;52.110;5.548;2023-07-20T10:42:02;30.30;43.50
24744;DHT22;12844;52.110;5.548;2023-07-20T10:44:28;30.50;43.10
24744;DHT22;12844;52.110;5.548;2023-07-20T10:47:02;30.60;42.70
24744;DHT22;12844;52.110;5.548;2023-07-20T10:49:28;30.80;42.40
24744;DHT22;12844;52.110;5.548;2023-07-20T10:51:59;30.90;42.40
24744;DHT22;12844;52.110;5.548;2023-07-20T10:56:54;31.00;42.20
24744;DHT22;12844;52.110;5.548;2023-07-20T10:59:36;31.10;42.20
24744;DHT22;12844;52.110;5.548;2023-07-20T11:02:09;31.10;42.70
24744;DHT22;12844;52.110;5.548;2023-07-20T11:04:39;31.10;42.00
24744;DHT22;12844;52.110;5.548;2023-07-20T11:07:05;31.10;42.20
24744;DHT22;12844;52.110;5.548;2023-07-20T11:09:38;30.80;42.40
24744;DHT22;12844;52.110;5.548;2023-07-20T11:12:14;30.20;43.20
24744;DHT22;12844;52.110;5.548;2023-07-20T11:14:53;29.60;44.40
24744;DHT22;12844;52.110;5.548;2023-07-20T11:17:19;29.10;45.30
24744;DHT22;12844;52.110;5.548;2023-07-20T11:19:55;28.60;46.00
24744;DHT22;12844;52.110;5.548;2023-07-20T11:22:22;28.20;44.70
24744;DHT22;12844;52.110;5.548;2023-07-20T11:24:47;28.10;45.80
24744;DHT22;12844;52.110;5.548;2023-07-20T11:27:15;28.40;46.50
24744;DHT22;12844;52.110;5.548;2023-07-20T11:29:40;28.80;46.00
24744;DHT22;12844;52.110;5.548;2023-07-20T11:32:06;29.10;45.60
24744;DHT22;12844;52.110;5.548;2023-07-20T11:34:33;29.40;45.10
24744;DHT22;12844;52.110;5.548;2023-07-20T11:36:59;29.30;45.00
24744;DHT22;12844;52.110;5.548;2023-07-20T11:39:25;29.20;45.00
24744;DHT22;12844;52.110;5.548;2023-07-20T11:41:55;29.20;45.00
24744;DHT22;12844;52.110;5.548;2023-07-20T11:44:26;29.10;45.20
24744;DHT22;12844;52.110;5.548;2023-07-20T11:47:07;28.90;45.50
24744;DHT22;12844;52.110;5.548;2023-07-20T11:49:37;28.70;45.80
24744;DHT22;12844;52.110;5.548;2023-07-20T11:52:07;28.50;46.20
24744;DHT22;12844;52.110;5.548;2023-07-20T11:54:34;28.40;46.60
24744;DHT22;12844;52.110;5.548;2023-07-20T11:57:03;28.10;46.90
24744;DHT22;12844;52.110;5.548;2023-07-20T11:59:31;28.00;47.40
24744;DHT22;12844;52.110;5.548;2023-07-20T12:01:57;27.80;47.70
24744;DHT22;12844;52.110;5.548;2023-07-20T12:04:23;27.70;48.00
24744;DHT22;12844;52.110;5.548;2023-07-20T12:06:49;27.50;48.20
24744;DHT22;12844;52.110;5.548;2023-07-20T12:09:16;27.50;48.50
24744;DHT22;12844;52.110;5.548;2023-07-20T12:11:43;27.40;48.60
24744;DHT22;12844;52.110;5.548;2023-07-20T12:14:10;27.30;48.80
24744;DHT22;12844;52.110;5.548;2023-07-20T12:16:37;27.30;49.00
24744;DHT22;12844;52.110;5.548;2023-07-20T12:19:11;27.20;49.10
24744;DHT22;12844;52.110;5.548;2023-07-20T12:21:38;27.20;49.20
24744;DHT22;12844;52.110;5.548;2023-07-20T12:24:05;27.10;49.30
24744;DHT22;12844;52.110;5.548;2023-07-20T12:26:32;27.00;49.50
24744;DHT22;12844;52.110;5.548;2023-07-20T12:28:58;27.00;49.50
24744;DHT22;12844;52.110;5.548;2023-07-20T12:31:25;27.00;49.60
24744;DHT22;12844;52.110;5.548;2023-07-20T12:33:51;26.90;49.70
24744;DHT22;12844;52.110;5.548;2023-07-20T12:36:18;26.80;49.40
24744;DHT22;12844;52.110;5.548;2023-07-20T12:38:44;26.80;49.10
24744;DHT22;12844;52.110;5.548;2023-07-20T12:41:11;26.80;48.00
24744;DHT22;12844;52.110;5.548;2023-07-20T12:43:38;26.70;47.90
24744;DHT22;12844;52.110;5.548;2023-07-20T12:46:04;26.60;48.00
24744;DHT22;12844;52.110;5.548;2023-07-20T12:48:29;26.60;48.30
24744;DHT22;12844;52.110;5.548;2023-07-20T12:50:55;26.50;48.80
24744;DHT22;12844;52.110;5.548;2023-07-20T12:53:21;26.50;48.90
24744;DHT22;12844;52.110;5.548;2023-07-20T12:55:47;26.50;49.00
24744;DHT22;12844;52.110;5.548;2023-07-20T12:58:13;26.50;49.10
24744;DHT22;12844;52.110;5.548;2023-07-20T13:00:39;26.50;49.30
24744;DHT22;12844;52.110;5.548;2023-07-20T13:03:06;26.40;49.30
24744;DHT22;12844;52.110;5.548;2023-07-20T13:05:32;26.40;49.20
24744;DHT22;12844;52.110;5.548;2023-07-20T13:07:57;26.40;49.30
24744;DHT22;12844;52.110;5.548;2023-07-20T13:10:23;26.40;49.50
24744;DHT22;12844;52.110;5.548;2023-07-20T13:12:49;26.30;49.10
24744;DHT22;12844;52.110;5.548;2023-07-20T13:15:17;26.20;48.70
24744;DHT22;12844;52.110;5.548;2023-07-20T13:17:42;26.20;48.90
24744;DHT22;12844;52.110;5.548;2023-07-20T13:20:09;26.10;49.00
24744;DHT22;12844;52.110;5.548;2023-07-20T13:22:37;26.10;49.20
24744;DHT22;12844;52.110;5.548;2023-07-20T13:25:02;26.00;49.30
24744;DHT22;12844;52.110;5.548;2023-07-20T13:27:28;26.00;49.50
24744;DHT22;12844;52.110;5.548;2023-07-20T13:29:55;26.00;49.60
24744;DHT22;12844;52.110;5.548;2023-07-20T13:32:22;25.90;49.60
24744;DHT22;12844;52.110;5.548;2023-07-20T13:34:48;25.90;49.60
24744;DHT22;12844;52.110;5.548;2023-07-20T13:37:14;26.00;49.60
24744;DHT22;12844;52.110;5.548;2023-07-20T13:39:39;26.00;49.70
24744;DHT22;12844;52.110;5.548;2023-07-20T13:42:06;25.90;49.70
24744;DHT22;12844;52.110;5.548;2023-07-20T13:44:32;25.90;49.70
24744;DHT22;12844;52.110;5.548;2023-07-20T13:46:58;25.90;49.70
24744;DHT22;12844;52.110;5.548;2023-07-20T13:49:23;25.90;49.70
24744;DHT22;12844;52.110;5.548;2023-07-20T13:51:49;25.90;49.80
24744;DHT22;12844;52.110;5.548;2023-07-20T13:54:15;26.00;49.80
24744;DHT22;12844;52.110;5.548;2023-07-20T13:56:41;26.00;49.80
24744;DHT22;12844;52.110;5.548;2023-07-20T13:59:07;26.00;49.90
24744;DHT22;12844;52.110;5.548;2023-07-20T14:01:32;26.00;49.90
24744;DHT22;12844;52.110;5.548;2023-07-20T14:04:01;26.00;50.00
24744;DHT22;12844;52.110;5.548;2023-07-20T14:06:29;26.00;50.00
24744;DHT22;12844;52.110;5.548;2023-07-20T14:08:56;26.00;50.10
24744;DHT22;12844;52.110;5.548;2023-07-20T14:11:22;25.90;50.00
24744;DHT22;12844;52.110;5.548;2023-07-20T14:13:48;26.00;50.10
24744;DHT22;12844;52.110;5.548;2023-07-20T14:16:13;26.00;50.10
24744;DHT22;12844;52.110;5.548;2023-07-20T14:18:39;26.00;50.10
24744;DHT22;12844;52.110;5.548;2023-07-20T14:21:05;25.90;50.20
24744;DHT22;12844;52.110;5.548;2023-07-20T14:23:32;25.90;50.30
24744;DHT22;12844;52.110;5.548;2023-07-20T14:25:58;25.90;50.30
24744;DHT22;12844;52.110;5.548;2023-07-20T14:28:24;25.90;50.30
24744;DHT22;12844;52.110;5.548;2023-07-20T14:30:49;25.80;50.30
24744;DHT22;12844;52.110;5.548;2023-07-20T14:33:15;25.80;50.40
24744;DHT22;12844;52.110;5.548;2023-07-20T14:35:41;25.80;50.40
24744;DHT22;12844;52.110;5.548;2023-07-20T14:38:06;25.80;50.50
24744;DHT22;12844;52.110;5.548;2023-07-20T14:40:32;25.80;50.40
24744;DHT22;12844;52.110;5.548;2023-07-20T14:42:58;25.80;50.70
24744;DHT22;12844;52.110;5.548;2023-07-20T14:45:32;25.90;50.90
24744;DHT22;12844;52.110;5.548;2023-07-20T14:47:57;25.90;50.70
24744;DHT22;12844;52.110;5.548;2023-07-20T14:50:23;25.90;50.70
24744;DHT22;12844;52.110;5.548;2023-07-20T14:52:49;25.80;50.80
24744;DHT22;12844;52.110;5.548;2023-07-20T14:55:15;25.80;50.60
24744;DHT22;12844;52.110;5.548;2023-07-20T14:57:40;25.80;50.70
24744;DHT22;12844;52.110;5.548;2023-07-20T15:00:06;25.80;50.70
24744;DHT22;12844;52.110;5.548;2023-07-20T15:02:33;25.80;50.70
24744;DHT22;12844;52.110;5.548;2023-07-20T15:04:59;25.80;50.70
24744;DHT22;12844;52.110;5.548;2023-07-20T15:07:25;25.70;50.70
24744;DHT22;12844;52.110;5.548;2023-07-20T15:09:51;25.80;50.80
24744;DHT22;12844;52.110;5.548;2023-07-20T15:12:16;25.80;50.80
24744;DHT22;12844;52.110;5.548;2023-07-20T15:14:43;25.80;50.90
24744;DHT22;12844;52.110;5.548;2023-07-20T15:17:09;25.70;50.80
24744;DHT22;12844;52.110;5.548;2023-07-20T15:19:34;25.70;50.90
24744;DHT22;12844;52.110;5.548;2023-07-20T15:22:07;25.70;50.90
24744;DHT22;12844;52.110;5.548;2023-07-20T15:24:35;25.70;50.80
24744;DHT22;12844;52.110;5.548;2023-07-20T15:27:04;25.70;51.00
24744;DHT22;12844;52.110;5.548;2023-07-20T15:29:30;25.60;50.90
24744;DHT22;12844;52.110;5.548;2023-07-20T15:31:56;25.70;51.00
24744;DHT22;12844;52.110;5.548;2023-07-20T15:34:21;25.60;51.50
24744;DHT22;12844;52.110;5.548;2023-07-20T15:36:47;25.60;50.90
24744;DHT22;12844;52.110;5.548;2023-07-20T15:39:12;25.60;50.90
24744;DHT22;12844;52.110;5.548;2023-07-20T15:41:38;25.60;50.90
24744;DHT22;12844;52.110;5.548;2023-07-20T15:44:03;25.60;51.00
24744;DHT22;12844;52.110;5.548;2023-07-20T15:49:07;25.60;50.90
24744;DHT22;12844;52.110;5.548;2023-07-20T15:51:35;25.50;51.00
24744;DHT22;12844;52.110;5.548;2023-07-20T15:54:04;25.60;51.10
24744;DHT22;12844;52.110;5.548;2023-07-20T15:56:32;25.60;51.30
24744;DHT22;12844;52.110;5.548;2023-07-20T15:58:58;25.60;51.60
24744;DHT22;12844;52.110;5.548;2023-07-20T16:01:24;25.60;51.70
24744;DHT22;12844;52.110;5.548;2023-07-20T16:03:49;25.60;51.60